createdAt,value
2023-03-03T06:03:00.251Z,4.17
2023-03-03T06:05:31.289Z,4.18
2023-03-03T06:08:08.244Z,4.20
2023-03-03T06:10:39.128Z,4.20
2023-03-03T06:13:16.639Z,4.23
2023-03-03T06:15:47.342Z,4.23
2023-03-03T06:18:28.360Z,4.22
2023-03-03T06:20:59.669Z,4.24
2023-03-03T06:23:38.361Z,4.24
2023-03-03T06:26:09.254Z,4.19
2023-03-03T06:28:46.325Z,4.26
2023-03-03T06:31:16.953Z,4.28
2023-03-03T06:33:56.238Z,4.28
2023-03-03T06:36:29.250Z,4.29
2023-03-03T06:38:59.555Z,4.32
2023-03-03T06:41:36.222Z,4.37
2023-03-03T06:44:06.673Z,4.43
2023-03-03T06:46:43.256Z,4.46
2023-03-03T06:49:23.235Z,4.47
2023-03-03T06:51:54.707Z,4.42
2023-03-03T06:54:38.279Z,4.47
2023-03-03T06:57:21.048Z,4.47
2023-03-03T07:00:02.294Z,4.45
2023-03-03T07:02:32.954Z,4.45
2023-03-03T07:05:20.308Z,4.49
2023-03-03T07:07:50.593Z,4.53
2023-03-03T07:10:34.252Z,4.52
2023-03-03T07:13:29.362Z,4.53
2023-03-03T07:16:12.239Z,4.60
2023-03-03T07:18:57.228Z,4.67
2023-03-03T07:21:36.589Z,4.65
2023-03-03T07:24:36.291Z,4.68
2023-03-03T07:27:22.509Z,4.75
2023-03-03T07:29:55.170Z,4.79
2023-03-03T07:32:38.292Z,4.82
2023-03-03T07:35:37.043Z,4.82
2023-03-03T07:38:39.287Z,4.86
2023-03-03T07:41:17.432Z,4.84
2023-03-03T07:44:01.274Z,4.94
2023-03-03T07:46:37.711Z,4.99
2023-03-03T07:49:31.342Z,5.03
2023-03-03T07:52:05.747Z,5.07
2023-03-03T07:54:49.334Z,5.11
2023-03-03T07:57:28.041Z,5.10
2023-03-03T08:00:11.320Z,5.24
2023-03-03T08:02:47.546Z,5.27
2023-03-03T08:05:44.373Z,5.29
2023-03-03T08:08:32.530Z,5.26
2023-03-03T08:11:16.409Z,5.28
2023-03-03T08:13:48.563Z,5.28
2023-03-03T08:16:47.296Z,5.36
2023-03-03T08:19:20.214Z,5.42
2023-03-03T08:21:57.300Z,5.47
2023-03-03T08:24:29.599Z,5.65
2023-03-03T08:27:09.376Z,5.67
2023-03-03T08:29:39.680Z,5.69
2023-03-03T08:32:17.330Z,5.76
2023-03-03T08:34:54.433Z,5.83
2023-03-03T08:37:24.666Z,5.89
2023-03-03T08:40:01.374Z,5.88
2023-03-03T08:42:34.369Z,5.94
2023-03-03T08:45:11.295Z,6.02
2023-03-03T08:47:43.238Z,6.10
2023-03-03T08:50:20.564Z,5.95
2023-03-03T08:52:51.219Z,6.28
2023-03-03T08:55:28.368Z,6.38
2023-03-03T08:58:01.392Z,6.43
2023-03-03T09:00:38.502Z,6.47
2023-03-03T09:03:09.778Z,6.53
2023-03-03T09:05:49.314Z,6.75
2023-03-03T09:08:20.128Z,6.99
2023-03-03T09:10:56.374Z,7.26
2023-03-03T09:13:35.372Z,7.61
2023-03-03T09:16:10.765Z,8.03
2023-03-03T09:18:48.328Z,8.76
2023-03-03T09:21:26.893Z,9.09
2023-03-03T09:24:06.446Z,9.29
2023-03-03T09:26:48.429Z,9.30
2023-03-03T09:29:36.383Z,9.23
2023-03-03T09:32:29.768Z,9.00
2023-03-03T09:35:07.483Z,9.54
2023-03-03T09:37:47.350Z,10.41
2023-03-03T09:40:53.505Z,11.10
2023-03-03T09:43:45.437Z,12.09
2023-03-03T09:46:33.780Z,12.54
2023-03-03T09:49:27.381Z,12.90
2023-03-03T09:52:25.468Z,12.73
2023-03-03T09:55:25.389Z,13.12
2023-03-03T09:58:24.395Z,13.34
2023-03-03T10:01:09.930Z,13.43
2023-03-03T10:04:24.637Z,13.58
2023-03-03T10:07:06.822Z,14.14
2023-03-03T10:10:16.452Z,14.40
2023-03-03T10:12:54.235Z,14.79
2023-03-03T10:15:46.558Z,14.93
2023-03-03T10:18:33.802Z,14.95
2023-03-03T10:21:21.449Z,14.66
2023-03-03T10:24:09.419Z,14.62
2023-03-03T10:27:12.420Z,14.41
2023-03-03T10:30:06.457Z,14.66
2023-03-03T10:32:50.089Z,14.67
2023-03-03T10:35:56.955Z,14.60
2023-03-03T10:38:55.407Z,14.64
2023-03-03T10:42:02.797Z,14.92
2023-03-03T10:45:03.462Z,14.77
2023-03-03T10:48:00.577Z,14.96
2023-03-03T10:50:39.384Z,15.13
2023-03-03T10:53:31.491Z,15.13
2023-03-03T10:56:27.086Z,15.45
2023-03-03T10:59:22.723Z,15.68
2023-03-03T11:02:01.162Z,15.82
2023-03-03T11:05:04.544Z,15.69
2023-03-03T11:07:43.344Z,15.74
2023-03-03T11:10:37.465Z,15.41
2023-03-03T11:13:30.669Z,15.12
2023-03-03T11:16:29.566Z,14.76
2023-03-03T11:19:13.990Z,14.78
2023-03-03T11:21:57.590Z,14.87
2023-03-03T11:24:50.527Z,15.18
2023-03-03T11:28:05.524Z,15.61
2023-03-03T11:30:57.518Z,16.19
2023-03-03T11:33:43.553Z,16.84
2023-03-03T11:36:19.710Z,17.21
2023-03-03T11:39:04.536Z,17.30
2023-03-03T11:41:40.951Z,16.94
2023-03-03T11:44:30.819Z,16.57
2023-03-03T11:47:14.560Z,16.19
2023-03-03T11:49:51.477Z,16.20
2023-03-03T11:52:38.576Z,15.65
2023-03-03T11:55:16.568Z,15.45
2023-03-03T11:58:00.554Z,15.33
2023-03-03T12:00:44.560Z,15.19
2023-03-03T12:03:32.386Z,15.27
2023-03-03T12:06:26.607Z,15.82
2023-03-03T12:09:29.613Z,16.51
2023-03-03T12:12:15.684Z,16.95
2023-03-03T12:15:02.794Z,16.63
2023-03-03T12:18:03.628Z,15.67
2023-03-03T12:20:48.984Z,15.07
2023-03-03T12:23:49.736Z,15.02
2023-03-03T12:26:28.166Z,15.26
2023-03-03T12:29:14.688Z,15.21
2023-03-03T12:31:55.225Z,15.23
2023-03-03T12:34:43.585Z,15.15
2023-03-03T12:37:33.734Z,15.07
2023-03-03T12:40:17.599Z,14.90
2023-03-03T12:43:23.662Z,14.87
2023-03-03T12:46:01.999Z,14.58
2023-03-03T12:48:50.712Z,14.54
2023-03-03T12:51:34.195Z,14.29
2023-03-03T12:54:46.640Z,14.05
2023-03-03T12:57:42.689Z,13.86
2023-03-03T13:00:46.554Z,13.63
2023-03-03T13:03:53.362Z,13.68
2023-03-03T13:06:32.561Z,13.66
2023-03-03T13:09:26.703Z,13.76
2023-03-03T13:12:44.570Z,13.80
2023-03-03T13:15:32.540Z,13.88
2023-03-03T13:18:31.044Z,13.79
2023-03-03T13:21:14.679Z,13.76
2023-03-03T13:23:54.673Z,13.67
2023-03-03T13:26:37.659Z,13.68
2023-03-03T13:29:18.711Z,13.49
2023-03-03T13:31:59.860Z,13.38
2023-03-03T13:34:46.232Z,13.32
2023-03-03T13:37:29.813Z,13.49
2023-03-03T13:40:03.718Z,13.58
2023-03-03T13:42:47.716Z,13.49
2023-03-03T13:45:28.497Z,13.29
2023-03-03T13:48:24.380Z,13.03
2023-03-03T13:50:59.302Z,13.05
2023-03-03T13:53:48.837Z,13.05
2023-03-03T13:56:42.804Z,13.03
2023-03-03T13:59:23.651Z,13.13
